createdAt,value
2022-12-06T00:01:21.765Z,101365.53
2022-12-06T00:04:04.515Z,101364.00
2022-12-06T00:06:44.154Z,101364.66
2022-12-06T00:09:31.893Z,101368.72
2022-12-06T00:12:00.424Z,101366.47
2022-12-06T00:14:27.890Z,101367.94
2022-12-06T00:16:55.413Z,101372.47
2022-12-06T00:19:30.906Z,101368.81
2022-12-06T00:21:58.625Z,101359.78
2022-12-06T00:24:26.118Z,101366.34
2022-12-06T00:26:55.878Z,101356.13
2022-12-06T00:29:32.837Z,101356.72
2022-12-06T00:32:00.445Z,101355.44
2022-12-06T00:34:29.227Z,101354.47
2022-12-06T00:36:56.995Z,101350.22
2022-12-06T00:39:24.224Z,101353.66
2022-12-06T00:41:55.415Z,101348.03
2022-12-06T00:44:22.928Z,101351.97
2022-12-06T00:46:58.225Z,101352.66
2022-12-06T00:49:25.561Z,101342.41
2022-12-06T00:52:01.460Z,101349.03
2022-12-06T00:54:30.909Z,101339.81
2022-12-06T00:56:58.814Z,101347.81
2022-12-06T00:59:26.068Z,101338.28
2022-12-06T01:01:53.159Z,101328.78
2022-12-06T01:04:20.636Z,101339.34
2022-12-06T01:06:48.932Z,101339.19
2022-12-06T01:09:16.162Z,101338.06
2022-12-06T01:11:43.288Z,101334.94
2022-12-06T01:14:10.550Z,101336.13
2022-12-06T01:16:38.177Z,101334.94
2022-12-06T01:19:06.189Z,101330.13
2022-12-06T01:21:34.821Z,101326.34
2022-12-06T01:24:01.841Z,101340.88
2022-12-06T01:26:34.111Z,101328.78
2022-12-06T01:29:02.498Z,101332.00
2022-12-06T01:31:37.328Z,101325.75
2022-12-06T01:34:06.161Z,101330.75
2022-12-06T01:36:33.117Z,101327.47
2022-12-06T01:39:01.192Z,101324.81
2022-12-06T01:41:29.384Z,101322.22
2022-12-06T01:43:57.243Z,101320.94
2022-12-06T01:46:30.584Z,101327.41
2022-12-06T01:49:14.013Z,101329.00
2022-12-06T01:51:46.781Z,101322.56
2022-12-06T01:54:15.787Z,101321.94
2022-12-06T01:56:44.841Z,101326.84
2022-12-06T01:59:13.252Z,101318.09
2022-12-06T02:01:42.217Z,101320.84
2022-12-06T02:04:10.645Z,101322.72
2022-12-06T02:06:39.951Z,101319.09
2022-12-06T02:09:14.976Z,101318.28
2022-12-06T02:11:43.867Z,101321.50
2022-12-06T02:14:22.597Z,101318.34
2022-12-06T02:16:53.766Z,101322.94
2022-12-06T02:19:23.954Z,101314.81
2022-12-06T02:22:02.521Z,101301.78
2022-12-06T02:24:39.713Z,101296.47
2022-12-06T02:27:17.184Z,101308.44
2022-12-06T02:29:56.317Z,101299.41
2022-12-06T02:32:40.200Z,101299.25
2022-12-06T02:35:11.119Z,101293.00
2022-12-06T02:38:13.154Z,101294.88
2022-12-06T02:40:43.918Z,101293.09
2022-12-06T02:43:23.203Z,101287.34
2022-12-06T02:45:54.418Z,101291.41
2022-12-06T02:48:24.711Z,101287.09
2022-12-06T02:50:54.019Z,101279.56
2022-12-06T02:53:23.986Z,101292.81
2022-12-06T02:55:53.884Z,101288.66
2022-12-06T02:58:21.226Z,101284.63
2022-12-06T03:00:52.845Z,101280.56
2022-12-06T03:03:40.219Z,101288.03
2022-12-06T03:06:26.792Z,101286.09
2022-12-06T03:09:10.145Z,101289.75
2022-12-06T03:11:52.631Z,101292.91
2022-12-06T03:14:33.622Z,101289.03
2022-12-06T03:17:10.947Z,101284.59
2022-12-06T03:19:46.255Z,101286.41
2022-12-06T03:22:19.985Z,101278.72
2022-12-06T03:24:48.270Z,101280.47
2022-12-06T03:27:19.214Z,101279.59
2022-12-06T03:29:55.385Z,101279.22
2022-12-06T03:32:25.688Z,101280.47
2022-12-06T03:35:03.596Z,101271.47
2022-12-06T03:37:32.841Z,101267.56
2022-12-06T03:40:00.291Z,101276.34
2022-12-06T03:42:28.208Z,101277.19
2022-12-06T03:44:55.600Z,101273.84
2022-12-06T03:47:46.129Z,101273.78
2022-12-06T03:50:19.721Z,101269.88
2022-12-06T03:52:47.368Z,101269.97
2022-12-06T03:55:14.388Z,101257.59
2022-12-06T03:57:42.331Z,101271.41
2022-12-06T04:00:09.950Z,101268.97
2022-12-06T04:02:37.018Z,101264.66
2022-12-06T04:05:04.138Z,101263.22
2022-12-06T04:07:32.288Z,101253.75
2022-12-06T04:10:03.940Z,101253.09
2022-12-06T04:12:51.578Z,101259.16
2022-12-06T04:15:19.383Z,101255.25
2022-12-06T04:18:05.169Z,101256.94
2022-12-06T04:20:50.884Z,101247.13
2022-12-06T04:23:18.742Z,101256.50
2022-12-06T04:25:47.398Z,101253.84
2022-12-06T04:28:33.011Z,101245.34
2022-12-06T04:31:21.960Z,101250.34
2022-12-06T04:34:08.984Z,101247.00
2022-12-06T04:36:54.979Z,101251.56
2022-12-06T04:39:23.072Z,101242.34
2022-12-06T04:42:09.685Z,101236.81
2022-12-06T04:44:36.613Z,101241.09
2022-12-06T04:47:04.974Z,101235.31
2022-12-06T04:49:33.791Z,101232.66
2022-12-06T04:52:01.832Z,101233.13
2022-12-06T04:54:35.480Z,101231.97
2022-12-06T04:57:02.963Z,101237.38
2022-12-06T04:59:34.604Z,101234.13
2022-12-06T05:02:01.701Z,101227.06
2022-12-06T05:04:28.755Z,101232.06
2022-12-06T05:06:56.376Z,101232.72
2022-12-06T05:09:25.444Z,101229.28
2022-12-06T05:11:52.782Z,101224.25
2022-12-06T05:14:20.467Z,101227.19
2022-12-06T05:16:47.509Z,101224.66
2022-12-06T05:19:14.997Z,101227.22
2022-12-06T05:21:42.484Z,101237.38
2022-12-06T05:24:12.106Z,101241.41
2022-12-06T05:26:39.340Z,101235.50
2022-12-06T05:29:25.480Z,101232.59
2022-12-06T05:31:55.163Z,101240.47
2022-12-06T05:34:22.436Z,101236.53
2022-12-06T05:36:49.050Z,101230.75
2022-12-06T05:39:16.873Z,101229.59
2022-12-06T05:41:43.271Z,101237.03
2022-12-06T05:44:11.194Z,101239.59
2022-12-06T05:46:38.241Z,101232.78
2022-12-06T05:49:05.242Z,101229.59
2022-12-06T05:51:31.813Z,101232.84
2022-12-06T05:53:58.450Z,101234.06
2022-12-06T05:56:25.007Z,101230.50
2022-12-06T05:58:51.437Z,101238.09
2022-12-06T06:01:18.037Z,101233.88
2022-12-06T06:03:47.788Z,101233.44
2022-12-06T06:06:14.732Z,101230.91
2022-12-06T06:08:41.327Z,101231.88
2022-12-06T06:11:08.046Z,101235.06
2022-12-06T06:13:34.649Z,101227.28
2022-12-06T06:16:01.631Z,101232.97
2022-12-06T06:18:28.518Z,101226.16
2022-12-06T06:20:57.355Z,101236.66
2022-12-06T06:23:24.814Z,101232.72
2022-12-06T06:25:51.402Z,101233.75
2022-12-06T06:28:18.484Z,101237.19
2022-12-06T06:30:44.981Z,101236.50
2022-12-06T06:33:11.463Z,101238.47
2022-12-06T06:35:38.770Z,101238.09
2022-12-06T06:38:05.504Z,101238.97
2022-12-06T06:40:32.069Z,101242.63
2022-12-06T06:42:58.582Z,101251.41
2022-12-06T06:45:28.950Z,101243.34
2022-12-06T06:47:55.889Z,101243.34
2022-12-06T06:50:22.445Z,101242.22
2022-12-06T06:52:48.871Z,101253.75
2022-12-06T06:55:15.351Z,101247.84
2022-12-06T06:57:41.944Z,101248.91
2022-12-06T07:00:08.806Z,101252.56
2022-12-06T07:02:35.390Z,101255.81
2022-12-06T07:05:01.950Z,101256.41
2022-12-06T07:07:28.375Z,101263.78
2022-12-06T07:09:54.805Z,101257.44
2022-12-06T07:12:21.664Z,101254.03
2022-12-06T07:14:48.106Z,101246.69
2022-12-06T07:17:14.832Z,101252.34
2022-12-06T07:19:41.484Z,101252.34
2022-12-06T07:22:10.372Z,101249.94
2022-12-06T07:24:41.613Z,101251.38
2022-12-06T07:27:09.410Z,101251.25
2022-12-06T07:29:36.386Z,101248.47
2022-12-06T07:32:02.960Z,101251.44
2022-12-06T07:34:29.603Z,101247.00
2022-12-06T07:36:57.667Z,101254.31
2022-12-06T07:39:24.192Z,101256.16
2022-12-06T07:42:11.887Z,101251.13
2022-12-06T07:45:01.692Z,101245.00
2022-12-06T07:47:33.287Z,101251.81
2022-12-06T07:50:00.572Z,101247.38
2022-12-06T07:52:31.187Z,101256.56
2022-12-06T07:54:58.837Z,101255.94
2022-12-06T07:57:25.567Z,101254.66
2022-12-06T07:59:52.577Z,101247.00
2022-12-06T08:02:21.644Z,101249.00
2022-12-06T08:04:48.670Z,101253.34
2022-12-06T08:07:15.520Z,101258.50
2022-12-06T08:09:42.352Z,101252.56
2022-12-06T08:12:09.155Z,101250.88
2022-12-06T08:14:36.792Z,101254.91
2022-12-06T08:17:04.444Z,101253.38
2022-12-06T08:19:31.001Z,101259.81
2022-12-06T08:21:57.720Z,101257.84
2022-12-06T08:24:24.576Z,101267.50
2022-12-06T08:26:52.592Z,101266.09
2022-12-06T08:29:19.366Z,101266.38
2022-12-06T08:31:46.677Z,101264.59
2022-12-06T08:34:14.031Z,101266.31
2022-12-06T08:36:41.080Z,101270.25
2022-12-06T08:39:08.049Z,101269.03
2022-12-06T08:41:53.340Z,101266.53
2022-12-06T08:44:20.577Z,101267.25
2022-12-06T08:46:48.767Z,101268.31
2022-12-06T08:49:17.141Z,101273.03
2022-12-06T08:51:44.204Z,101268.78
2022-12-06T08:54:13.745Z,101266.69
2022-12-06T08:56:40.582Z,101274.00
2022-12-06T08:59:07.386Z,101275.03
2022-12-06T09:01:38.173Z,101274.44
2022-12-06T09:04:06.198Z,101273.59
2022-12-06T09:06:33.231Z,101284.06
2022-12-06T09:08:59.973Z,101286.13
2022-12-06T09:11:26.840Z,101287.81
2022-12-06T09:13:53.562Z,101287.31
2022-12-06T09:16:22.193Z,101287.31
2022-12-06T09:18:49.471Z,101283.56
2022-12-06T09:21:17.632Z,101292.34
2022-12-06T09:23:44.906Z,101290.06
2022-12-06T09:26:11.810Z,101292.03
2022-12-06T09:28:39.420Z,101292.78
2022-12-06T09:31:07.427Z,101289.38
2022-12-06T09:33:35.244Z,101289.94
2022-12-06T09:36:05.723Z,101288.94
2022-12-06T09:38:35.021Z,101293.75
2022-12-06T09:41:11.795Z,101292.81
2022-12-06T09:43:57.083Z,101284.13
2022-12-06T09:46:43.017Z,101288.56
2022-12-06T09:49:09.452Z,101300.75
2022-12-06T09:51:51.635Z,101293.72
2022-12-06T09:54:21.062Z,101290.69
2022-12-06T09:56:50.658Z,101277.28
2022-12-06T09:59:24.606Z,101279.50
2022-12-06T10:02:01.953Z,101279.09
2022-12-06T10:04:47.658Z,101269.28
2022-12-06T10:07:29.522Z,101277.13
2022-12-06T10:10:05.294Z,101274.72
2022-12-06T10:12:45.018Z,101273.34
2022-12-06T10:15:30.486Z,101271.38
2022-12-06T10:18:13.473Z,101269.09
2022-12-06T10:20:39.951Z,101269.53
2022-12-06T10:23:29.619Z,101270.41
2022-12-06T10:25:55.979Z,101273.06
2022-12-06T10:28:22.349Z,101276.81
2022-12-06T10:30:53.430Z,101274.69
2022-12-06T10:33:21.901Z,101268.19
2022-12-06T10:36:02.154Z,101279.69
2022-12-06T10:38:52.324Z,101274.09
2022-12-06T10:41:23.558Z,101273.94
2022-12-06T10:44:01.323Z,101272.16
2022-12-06T10:47:05.148Z,101268.50
2022-12-06T10:49:34.725Z,101270.97
2022-12-06T10:52:08.596Z,101267.31
2022-12-06T10:54:54.011Z,101271.06
2022-12-06T10:57:32.322Z,101268.31
2022-12-06T11:00:03.992Z,101269.16
2022-12-06T11:02:43.043Z,101267.19
2022-12-06T11:05:19.090Z,101263.66
2022-12-06T11:07:48.603Z,101265.25
2022-12-06T11:10:24.608Z,101257.69
2022-12-06T11:12:57.080Z,101260.50
2022-12-06T11:15:29.069Z,101263.03
2022-12-06T11:18:02.500Z,101269.50
2022-12-06T11:20:32.398Z,101257.22
2022-12-06T11:23:17.009Z,101256.38
2022-12-06T11:25:55.955Z,101247.75
2022-12-06T11:28:29.011Z,101249.66
2022-12-06T11:30:56.876Z,101251.00
2022-12-06T11:33:27.747Z,101243.59
2022-12-06T11:35:54.225Z,101248.63
2022-12-06T11:38:21.262Z,101249.31
2022-12-06T11:40:50.533Z,101239.41
2022-12-06T11:43:30.823Z,101237.63
2022-12-06T11:45:58.085Z,101242.28
2022-12-06T11:48:26.467Z,101235.22
2022-12-06T11:50:53.479Z,101226.41
2022-12-06T11:53:20.506Z,101225.41
2022-12-06T11:55:49.419Z,101220.88
2022-12-06T11:58:20.163Z,101220.75
2022-12-06T12:00:57.407Z,101218.59
2022-12-06T12:03:29.185Z,101212.88
2022-12-06T12:06:07.824Z,101213.75
2022-12-06T12:08:34.315Z,101219.06
2022-12-06T12:11:02.112Z,101219.84
2022-12-06T12:13:48.511Z,101211.38
2022-12-06T12:16:15.045Z,101211.47
2022-12-06T12:18:56.764Z,101215.16
2022-12-06T12:21:37.785Z,101220.72
2022-12-06T12:24:05.262Z,101211.31
2022-12-06T12:26:36.921Z,101209.28
2022-12-06T12:29:19.242Z,101211.06
2022-12-06T12:31:52.354Z,101211.06
2022-12-06T12:34:19.156Z,101202.13
2022-12-06T12:36:50.469Z,101205.00
2022-12-06T12:39:43.305Z,101198.13
2022-12-06T12:42:30.064Z,101197.25
2022-12-06T12:45:00.000Z,101196.53
2022-12-06T12:47:26.899Z,101192.47
2022-12-06T12:49:59.379Z,101180.25
2022-12-06T12:52:30.565Z,101186.63
2022-12-06T12:55:03.027Z,101192.72
2022-12-06T12:57:30.421Z,101194.00
2022-12-06T12:59:57.199Z,101182.28
2022-12-06T13:02:27.513Z,101183.09
2022-12-06T13:05:17.243Z,101178.22
2022-12-06T13:07:48.172Z,101169.03
2022-12-06T13:10:18.172Z,101179.97
2022-12-06T13:12:50.259Z,101170.44
2022-12-06T13:15:19.209Z,101172.00
2022-12-06T13:17:52.822Z,101181.59
2022-12-06T13:20:27.108Z,101183.97
2022-12-06T13:22:55.657Z,101177.22
2022-12-06T13:25:22.014Z,101180.75
2022-12-06T13:27:51.526Z,101181.34
2022-12-06T13:30:25.487Z,101174.09
2022-12-06T13:32:54.527Z,101176.09
2022-12-06T13:35:27.837Z,101175.19
2022-12-06T13:37:58.621Z,101178.03
2022-12-06T13:40:39.970Z,101184.34
2022-12-06T13:43:26.361Z,101183.63
2022-12-06T13:46:12.836Z,101185.28
2022-12-06T13:48:39.340Z,101181.31
2022-12-06T13:51:11.357Z,101184.81
2022-12-06T13:53:58.263Z,101182.06
2022-12-06T13:56:29.663Z,101190.69
2022-12-06T13:58:57.375Z,101193.50
2022-12-06T14:01:36.929Z,101184.28
2022-12-06T14:06:55.858Z,101186.78
2022-12-06T14:09:23.780Z,101183.31
2022-12-06T14:11:50.547Z,101185.38
2022-12-06T14:14:19.442Z,101175.16
2022-12-06T14:16:49.807Z,101172.25
2022-12-06T14:19:21.588Z,101174.34
2022-12-06T14:21:58.640Z,101166.06
2022-12-06T14:24:31.266Z,101167.41
2022-12-06T14:27:05.148Z,101168.59
2022-12-06T14:29:32.167Z,101171.91
2022-12-06T14:31:59.037Z,101171.53
2022-12-06T14:34:28.661Z,101180.00
2022-12-06T14:36:55.697Z,101183.94
2022-12-06T14:39:27.530Z,101171.31
2022-12-06T14:42:17.687Z,101169.88
2022-12-06T14:44:56.180Z,101160.66
2022-12-06T14:47:27.996Z,101162.41
2022-12-06T14:50:17.099Z,101160.47
2022-12-06T14:53:03.962Z,101150.88
2022-12-06T14:55:34.676Z,101145.38
2022-12-06T14:58:02.674Z,101152.28
2022-12-06T15:00:37.566Z,101141.19
2022-12-06T15:03:13.281Z,101148.47
2022-12-06T15:05:41.137Z,101147.00
2022-12-06T15:08:25.887Z,101145.25
2022-12-06T15:10:56.913Z,101149.16
2022-12-06T15:13:24.275Z,101158.94
2022-12-06T15:16:01.263Z,101155.88
2022-12-06T15:18:29.358Z,101154.53
2022-12-06T15:20:56.272Z,101162.78
2022-12-06T15:23:25.894Z,101173.38
2022-12-06T15:25:52.508Z,101166.50
2022-12-06T15:28:20.085Z,101165.81
2022-12-06T15:30:46.730Z,101160.22
2022-12-06T15:33:22.252Z,101156.00
2022-12-06T15:35:49.883Z,101153.50
2022-12-06T15:38:17.214Z,101162.88
2022-12-06T15:40:45.516Z,101151.31
2022-12-06T15:43:32.736Z,101149.47
2022-12-06T15:46:01.687Z,101153.16
2022-12-06T15:48:29.215Z,101150.63
2022-12-06T15:50:58.691Z,101145.97
2022-12-06T15:53:26.297Z,101142.38
2022-12-06T15:55:53.665Z,101147.75
2022-12-06T15:58:21.409Z,101145.53
2022-12-06T16:00:48.760Z,101147.94
2022-12-06T16:03:16.513Z,101148.19
2022-12-06T16:05:43.213Z,101150.66
2022-12-06T16:08:09.856Z,101141.28
2022-12-06T16:11:10.151Z,101141.03
2022-12-06T16:13:24.544Z,101144.75
2022-12-06T16:15:52.475Z,101153.59
2022-12-06T16:18:19.828Z,101153.22
2022-12-06T16:20:46.737Z,101149.75
2022-12-06T16:23:56.676Z,101147.28
2022-12-06T16:26:19.858Z,101151.63
2022-12-06T16:28:46.446Z,101144.19
2022-12-06T16:31:14.284Z,101147.22
2022-12-06T16:33:41.215Z,101145.47
2022-12-06T16:36:16.632Z,101150.34
2022-12-06T16:38:43.185Z,101153.00
2022-12-06T16:41:11.216Z,101151.22
2022-12-06T16:43:37.877Z,101143.78
2022-12-06T16:46:18.806Z,101152.56
2022-12-06T16:48:45.299Z,101155.50
2022-12-06T16:51:11.974Z,101156.88
2022-12-06T16:53:38.532Z,101148.53
2022-12-06T16:56:05.229Z,101152.44
2022-12-06T16:58:32.189Z,101153.84
2022-12-06T17:01:00.077Z,101151.91
2022-12-06T17:03:26.789Z,101155.69
2022-12-06T17:05:53.715Z,101152.72
2022-12-06T17:08:22.289Z,101156.09
2022-12-06T17:10:49.276Z,101154.97
2022-12-06T17:13:15.852Z,101156.06
2022-12-06T17:15:42.847Z,101146.16
2022-12-06T17:18:09.931Z,101156.47
2022-12-06T17:20:37.202Z,101155.06
2022-12-06T17:23:04.358Z,101154.53
2022-12-06T17:25:31.226Z,101151.34
2022-12-06T17:27:57.746Z,101145.63
2022-12-06T17:30:24.773Z,101152.00
2022-12-06T17:32:51.337Z,101147.66
2022-12-06T17:35:17.916Z,101149.25
2022-12-06T17:37:44.720Z,101145.44
2022-12-06T17:40:11.887Z,101149.09
2022-12-06T17:42:57.138Z,101147.94
2022-12-06T17:45:25.096Z,101146.25
2022-12-06T17:47:51.703Z,101146.34
2022-12-06T17:50:18.479Z,101147.50
2022-12-06T17:52:45.011Z,101143.97
2022-12-06T17:55:15.167Z,101137.44
2022-12-06T17:57:41.829Z,101137.13
2022-12-06T18:00:09.144Z,101131.75
2022-12-06T18:02:36.081Z,101141.25
2022-12-06T18:05:03.293Z,101135.75
2022-12-06T18:07:30.154Z,101133.09
2022-12-06T18:09:56.946Z,101138.06
2022-12-06T18:12:24.558Z,101144.91
2022-12-06T18:14:51.842Z,101137.63
2022-12-06T18:17:18.659Z,101139.19
2022-12-06T18:19:47.047Z,101135.00
2022-12-06T18:22:13.997Z,101134.00
2022-12-06T18:24:40.547Z,101126.47
2022-12-06T18:27:07.796Z,101124.53
2022-12-06T18:29:34.452Z,101122.13
2022-12-06T18:32:01.290Z,101125.59
2022-12-06T18:34:28.016Z,101121.00
2022-12-06T18:36:54.745Z,101127.03
2022-12-06T18:39:25.181Z,101122.84
2022-12-06T18:41:52.888Z,101118.94
2022-12-06T18:44:21.000Z,101112.50
2022-12-06T18:46:47.997Z,101114.44
2022-12-06T18:49:15.038Z,101120.31
2022-12-06T18:51:44.335Z,101117.22
2022-12-06T18:54:13.543Z,101117.09
2022-12-06T18:56:40.760Z,101108.69
2022-12-06T18:59:08.629Z,101102.38
2022-12-06T19:01:36.240Z,101107.69
2022-12-06T19:04:04.191Z,101110.75
2022-12-06T19:06:32.635Z,101107.97
2022-12-06T19:09:01.447Z,101092.97
2022-12-06T19:11:28.087Z,101102.66
2022-12-06T19:13:55.808Z,101094.50
2022-12-06T19:16:27.217Z,101094.72
2022-12-06T19:18:54.961Z,101091.78
2022-12-06T19:21:22.184Z,101090.09
2022-12-06T19:23:49.185Z,101090.75
2022-12-06T19:26:15.925Z,101088.19
2022-12-06T19:28:42.461Z,101094.06
2022-12-06T19:31:13.967Z,101087.66
2022-12-06T19:33:43.405Z,101091.00
2022-12-06T19:36:17.296Z,101080.66
2022-12-06T19:38:45.576Z,101080.34
2022-12-06T19:41:14.137Z,101078.81
2022-12-06T19:44:00.049Z,101083.03
2022-12-06T19:46:30.093Z,101072.28
2022-12-06T19:48:58.622Z,101065.00
2022-12-06T19:51:28.323Z,101062.19
2022-12-06T19:53:55.920Z,101062.75
2022-12-06T19:56:22.658Z,101052.72
2022-12-06T19:58:49.643Z,101058.63
2022-12-06T20:01:19.045Z,101054.13
2022-12-06T20:03:47.952Z,101058.63
2022-12-06T20:06:19.135Z,101048.66
2022-12-06T20:08:47.281Z,101045.59
2022-12-06T20:11:33.599Z,101045.69
2022-12-06T20:14:01.089Z,101042.00
2022-12-06T20:16:28.225Z,101035.03
2022-12-06T20:18:55.021Z,101033.66
2022-12-06T20:21:22.517Z,101023.84
2022-12-06T20:24:00.938Z,101024.41
2022-12-06T20:26:27.919Z,101021.69
2022-12-06T20:28:55.402Z,101010.84
2022-12-06T20:31:23.672Z,101015.63
2022-12-06T20:34:03.097Z,100993.59
2022-12-06T20:36:32.418Z,100989.34
2022-12-06T20:39:01.023Z,100977.72
2022-12-06T20:41:30.548Z,100980.44
2022-12-06T20:43:58.067Z,100980.88
2022-12-06T20:46:26.040Z,100975.09
2022-12-06T20:48:52.872Z,100977.88
2022-12-06T20:51:21.354Z,100980.94
2022-12-06T20:53:50.381Z,100977.66
2022-12-06T20:56:18.922Z,100972.38
2022-12-06T20:58:46.138Z,100965.47
2022-12-06T21:01:23.388Z,100960.28
2022-12-06T21:03:51.178Z,100963.94
2022-12-06T21:06:18.619Z,100952.03
2022-12-06T21:08:45.929Z,100955.06
2022-12-06T21:11:23.809Z,100951.28
2022-12-06T21:13:55.029Z,100943.59
2022-12-06T21:16:32.135Z,100944.75
2022-12-06T21:19:01.076Z,100943.97
2022-12-06T21:21:36.119Z,100940.09
2022-12-06T21:24:04.299Z,100930.09
2022-12-06T21:26:31.818Z,100924.78
2022-12-06T21:28:58.955Z,100923.28
2022-12-06T21:31:35.397Z,100915.03
2022-12-06T21:34:03.554Z,100918.34
2022-12-06T21:36:30.307Z,100922.06
2022-12-06T21:38:57.939Z,100918.41
2022-12-06T21:41:24.508Z,100923.88
2022-12-06T21:43:51.671Z,100924.19
2022-12-06T21:46:23.148Z,100911.06
2022-12-06T21:48:50.888Z,100918.28
2022-12-06T21:51:18.991Z,100911.44
2022-12-06T21:53:45.842Z,100920.63
2022-12-06T21:56:14.495Z,100914.09
2022-12-06T21:58:41.297Z,100918.94
2022-12-06T22:01:09.396Z,100906.88
2022-12-06T22:03:37.409Z,100895.97
2022-12-06T22:06:07.830Z,100891.56
2022-12-06T22:08:35.275Z,100889.06
2022-12-06T22:11:05.987Z,100887.09
2022-12-06T22:13:33.164Z,100885.03
2022-12-06T22:16:08.954Z,100892.25
2022-12-06T22:18:41.023Z,100887.91
2022-12-06T22:21:14.623Z,100886.41
2022-12-06T22:23:42.567Z,100889.13
2022-12-06T22:26:10.577Z,100883.63
2022-12-06T22:28:37.400Z,100880.72
2022-12-06T22:31:09.046Z,100880.63
2022-12-06T22:33:36.478Z,100866.91
2022-12-06T22:36:02.986Z,100865.00
2022-12-06T22:38:30.273Z,100860.22
2022-12-06T22:41:00.863Z,100858.78
2022-12-06T22:43:29.650Z,100847.69
2022-12-06T22:45:56.510Z,100838.25
2022-12-06T22:48:23.111Z,100837.25
2022-12-06T22:50:50.132Z,100843.94
2022-12-06T22:53:17.611Z,100837.16
2022-12-06T22:55:46.789Z,100838.41
2022-12-06T22:58:13.168Z,100828.53
2022-12-06T23:00:40.540Z,100834.00
2022-12-06T23:03:07.059Z,100821.19
2022-12-06T23:05:33.661Z,100822.94
2022-12-06T23:08:12.875Z,100818.53
2022-12-06T23:10:39.463Z,100823.09
2022-12-06T23:13:06.050Z,100817.09
2022-12-06T23:15:34.652Z,100819.28
2022-12-06T23:18:02.380Z,100817.66
2022-12-06T23:20:28.970Z,100815.91
2022-12-06T23:22:55.637Z,100808.03
2022-12-06T23:25:22.443Z,100810.59
2022-12-06T23:27:49.433Z,100806.69
2022-12-06T23:30:16.099Z,100805.16
2022-12-06T23:32:42.618Z,100806.59
2022-12-06T23:35:16.442Z,100806.53
2022-12-06T23:37:43.443Z,100803.50
2022-12-06T23:40:10.087Z,100788.47
2022-12-06T23:42:36.446Z,100788.00
2022-12-06T23:45:05.512Z,100789.06
2022-12-06T23:47:32.184Z,100776.72
2022-12-06T23:49:58.933Z,100775.59
2022-12-06T23:52:26.878Z,100766.50
2022-12-06T23:54:53.527Z,100769.91
2022-12-06T23:57:19.876Z,100767.94
2022-12-06T23:59:46.338Z,100769.59
